Time;durP1;ratioP1;P1;durP2;ratioP2;P2;SDS_P1;SDS_P2;PMS_P1;PMS_P2;Temp;Humidity;BMP_temperature;BMP_pressure;BME280_temperature;BME280_humidity;BME280_pressure;Samples;Min_cycle;Max_cycle;Signal;HPM_P1;HPM_P2
2022/10/31 00:00:41;;;;;;;9.52;2.70;;;12.00;94.90;;;;;;5005742;28;20047;-67
2022/10/31 00:03:07;;;;;;;11.48;3.88;;;12.00;95.30;;;;;;5003845;28;20109;-66
2022/10/31 00:05:33;;;;;;;7.47;2.58;;;12.00;95.60;;;;;;4996082;28;20018;-67
2022/10/31 00:07:59;;;;;;;9.73;3.08;;;11.90;95.90;;;;;;5016573;28;20132;-66
2022/10/31 00:10:25;;;;;;;8.23;2.42;;;11.80;96.00;;;;;;5014871;28;20032;-67
2022/10/31 00:12:51;;;;;;;10.27;2.83;;;11.70;96.20;;;;;;5015292;28;20040;-66
2022/10/31 00:15:17;;;;;;;8.80;2.55;;;11.50;96.50;;;;;;5005656;28;20100;-66
2022/10/31 00:17:43;;;;;;;12.40;2.97;;;11.30;97.00;;;;;;5021684;28;20079;-67
2022/10/31 00:20:09;;;;;;;14.48;3.90;;;11.20;97.30;;;;;;5015605;28;20308;-67
2022/10/31 00:22:35;;;;;;;12.77;3.38;;;11.20;97.30;;;;;;5020781;28;20028;-67
2022/10/31 00:25:01;;;;;;;14.43;3.50;;;11.50;97.80;;;;;;5018531;28;20026;-66
2022/10/31 00:27:27;;;;;;;10.60;3.08;;;11.70;97.60;;;;;;5013099;28;20109;-67
2022/10/31 00:29:52;;;;;;;9.90;3.53;;;11.80;97.60;;;;;;5015282;28;20366;-66
2022/10/31 00:32:18;;;;;;;11.07;3.58;;;11.90;97.60;;;;;;5016333;28;20029;-66
2022/10/31 00:34:44;;;;;;;10.57;3.30;;;12.10;97.20;;;;;;5016482;28;20038;-65
2022/10/31 00:37:10;;;;;;;10.82;3.15;;;12.10;97.00;;;;;;5016158;28;20546;-66
2022/10/31 00:39:36;;;;;;;7.68;3.33;;;12.00;97.10;;;;;;5010829;28;20021;-66
2022/10/31 00:42:02;;;;;;;9.98;3.28;;;12.00;97.20;;;;;;5017606;28;20026;-66
2022/10/31 00:44:28;;;;;;;9.05;3.55;;;12.00;97.30;;;;;;5015698;28;20580;-66
2022/10/31 00:46:55;;;;;;;11.48;3.63;;;12.00;97.30;;;;;;5014701;28;20084;-67
2022/10/31 00:49:21;;;;;;;10.25;3.05;;;12.00;97.40;;;;;;5020137;28;20036;-66
2022/10/31 00:51:46;;;;;;;9.82;3.22;;;11.90;97.60;;;;;;5015343;28;20310;-66
2022/10/31 00:54:13;;;;;;;11.23;3.55;;;11.80;97.60;;;;;;5009214;28;20089;-66
2022/10/31 00:56:38;;;;;;;12.95;4.10;;;11.70;97.80;;;;;;5016441;28;20065;-67
2022/10/31 00:59:07;;;;;;;7.30;3.30;;;11.70;97.90;;;;;;5009488;28;20038;-67
2022/10/31 01:01:33;;;;;;;10.45;3.50;;;11.70;97.90;;;;;;5015371;28;20450;-66
2022/10/31 01:03:59;;;;;;;11.07;3.58;;;11.60;97.70;;;;;;5017487;28;20033;-67
2022/10/31 01:06:24;;;;;;;7.35;3.40;;;11.50;97.80;;;;;;5014817;28;20080;-67
2022/10/31 01:08:50;;;;;;;12.68;3.47;;;11.50;97.90;;;;;;5013102;28;20169;-66
2022/10/31 01:11:22;;;;;;;9.40;3.40;;;11.40;97.90;;;;;;5014849;28;20053;-66
2022/10/31 01:13:49;;;;;;;13.15;4.10;;;11.30;97.60;;;;;;5010337;28;20022;-66
2022/10/31 01:16:19;;;;;;;8.82;3.28;;;11.30;97.80;;;;;;5005298;28;20022;-67
2022/10/31 01:18:45;;;;;;;9.50;3.72;;;11.30;97.90;;;;;;5013151;28;20037;-67
2022/10/31 01:21:20;;;;;;;6.65;3.03;;;11.50;98.00;;;;;;5013784;28;20022;-66
2022/10/31 01:23:46;;;;;;;9.07;3.30;;;11.50;98.00;;;;;;5016111;28;20028;-67
2022/10/31 01:26:17;;;;;;;9.88;3.50;;;11.50;98.00;;;;;;5008762;28;20041;-67
2022/10/31 01:29:05;;;;;;;8.93;3.47;;;11.50;98.00;;;;;;5004840;28;20113;-66
2022/10/31 01:31:38;;;;;;;8.32;3.17;;;11.40;98.00;;;;;;5009250;28;20369;-67
2022/10/31 01:34:06;;;;;;;11.00;4.00;;;11.30;97.90;;;;;;5007268;28;20029;-66
2022/10/31 01:36:35;;;;;;;12.02;4.30;;;11.20;97.90;;;;;;5011120;28;20065;-67
2022/10/31 01:39:05;;;;;;;7.95;3.60;;;11.20;97.70;;;;;;5012900;28;20034;-67
2022/10/31 01:41:33;;;;;;;9.32;3.63;;;11.10;97.50;;;;;;5010541;28;20092;-67
2022/10/31 01:44:01;;;;;;;10.00;3.45;;;11.10;97.50;;;;;;5016101;28;20093;-67
2022/10/31 01:46:35;;;;;;;12.10;3.55;;;11.10;97.60;;;;;;5005368;28;20142;-66
2022/10/31 01:49:04;;;;;;;;;;;11.10;97.20;;;;;;5022448;28;20029;-67
2022/10/31 01:51:34;;;;;;;11.45;3.65;;;11.20;97.50;;;;;;5013657;28;19967;-66
2022/10/31 01:54:07;;;;;;;9.77;4.18;;;11.20;97.50;;;;;;5025894;28;20021;-67
2022/10/31 01:56:37;;;;;;;8.48;3.33;;;11.30;97.60;;;;;;5011901;28;20080;-67
2022/10/31 01:59:06;;;;;;;12.10;3.53;;;11.30;97.70;;;;;;5013307;28;20022;-67
2022/10/31 02:01:33;;;;;;;9.73;3.38;;;11.30;97.60;;;;;;5010137;28;20503;-66
2022/10/31 02:03:58;;;;;;;11.13;3.33;;;11.30;97.80;;;;;;5004915;28;20426;-67
2022/10/31 02:06:46;;;;;;;8.88;4.25;;;11.20;97.50;;;;;;5019767;28;20032;-67
2022/10/31 02:09:15;;;;;;;11.90;3.97;;;11.20;97.70;;;;;;5003151;28;20109;-67
2022/10/31 02:11:42;;;;;;;7.25;3.35;;;11.10;97.50;;;;;;5013216;28;20037;-67
2022/10/31 02:14:08;;;;;;;8.73;3.38;;;11.00;97.50;;;;;;5011654;28;20561;-67
2022/10/31 02:16:35;;;;;;;6.75;3.17;;;11.10;97.50;;;;;;5010466;28;20057;-67
2022/10/31 02:19:02;;;;;;;8.93;3.40;;;11.20;97.80;;;;;;5007793;28;20030;-67
2022/10/31 02:21:37;;;;;;;8.25;3.63;;;11.20;97.80;;;;;;5011793;28;20054;-67
2022/10/31 02:24:44;;;;;;;10.57;3.60;;;11.10;97.80;;;;;;5001738;28;20022;-67
2022/10/31 02:27:46;;;;;;;10.27;3.90;;;11.00;97.80;;;;;;5007713;28;20042;-67
2022/10/31 02:30:18;;;;;;;11.88;3.60;;;10.90;97.30;;;;;;5007055;28;20061;-67
2022/10/31 02:33:19;;;;;;;9.50;3.63;;;10.80;97.30;;;;;;4998901;28;20378;-67
2022/10/31 02:36:25;;;;;;;10.90;3.55;;;10.90;97.30;;;;;;5004443;28;20073;-66
2022/10/31 02:39:14;;;;;;;13.55;3.85;;;11.00;97.60;;;;;;5012951;28;20077;-67
2022/10/31 02:42:00;;;;;;;10.18;3.95;;;11.10;97.90;;;;;;5014491;28;20042;-67
2022/10/31 02:44:49;;;;;;;14.35;4.63;;;11.10;98.00;;;;;;5012599;28;20030;-67
2022/10/31 02:47:17;;;;;;;8.98;3.38;;;11.10;98.00;;;;;;5011736;28;20037;-67
2022/10/31 02:50:10;;;;;;;10.35;3.33;;;11.20;98.00;;;;;;5011489;28;20018;-67
2022/10/31 02:52:36;;;;;;;12.65;4.38;;;11.20;98.00;;;;;;5005819;28;20038;-66
2022/10/31 02:55:29;;;;;;;9.52;3.58;;;11.20;98.00;;;;;;5000939;28;20048;-67
2022/10/31 02:58:08;;;;;;;9.80;3.28;;;11.20;98.00;;;;;;5010355;28;20052;-67
2022/10/31 03:00:58;;;;;;;9.38;3.35;;;11.10;98.00;;;;;;5010958;28;20034;-67
2022/10/31 03:03:33;;;;;;;10.30;4.00;;;11.10;98.00;;;;;;5012544;28;20117;-67
2022/10/31 03:06:09;;;;;;;8.85;3.30;;;11.10;98.00;;;;;;5011987;28;20321;-67
2022/10/31 03:08:37;;;;;;;10.23;3.53;;;11.10;98.00;;;;;;5023340;28;20053;-67
2022/10/31 03:11:07;;;;;;;9.23;4.03;;;11.00;98.00;;;;;;5012294;28;20026;-66
2022/10/31 03:14:06;;;;;;;10.35;3.58;;;10.90;98.00;;;;;;5019295;28;20099;-66
2022/10/31 03:16:46;;;;;;;15.27;3.95;;;10.80;98.00;;;;;;5010254;28;20030;-67
2022/10/31 03:19:15;;;;;;;11.40;4.03;;;10.70;98.00;;;;;;5017291;28;20040;-67
2022/10/31 03:21:58;;;;;;;10.52;4.10;;;10.60;98.00;;;;;;5013325;28;20137;-67
2022/10/31 03:24:33;;;;;;;8.32;3.50;;;10.50;98.00;;;;;;5008857;28;20124;-67
2022/10/31 03:27:00;;;;;;;10.45;4.47;;;10.40;98.00;;;;;;5009981;28;20041;-67
2022/10/31 03:29:31;;;;;;;9.23;3.30;;;10.30;98.00;;;;;;5012312;28;20050;-67
2022/10/31 03:32:07;;;;;;;14.57;3.80;;;10.20;98.00;;;;;;5018183;28;20091;-67
2022/10/31 03:37:56;;;;;;;9.13;3.50;;;10.20;98.00;;;;;;4993510;28;20136;-67
2022/10/31 03:40:24;;;;;;;11.45;3.95;;;10.20;98.00;;;;;;5016345;28;20485;-66
2022/10/31 03:43:03;;;;;;;12.50;3.28;;;10.30;98.00;;;;;;5009955;28;20037;-65
2022/10/31 03:45:30;;;;;;;14.68;3.40;;;10.50;98.00;;;;;;5017670;28;20022;-65
2022/10/31 03:47:59;;;;;;;11.20;3.10;;;10.60;98.00;;;;;;5017667;28;20034;-65
2022/10/31 03:50:33;;;;;;;9.07;3.10;;;10.70;98.00;;;;;;5012258;28;20061;-65
2022/10/31 03:53:14;;;;;;;;;;;10.60;98.00;;;;;;5013286;28;20058;-67
2022/10/31 03:56:02;;;;;;;7.90;3.20;;;10.70;98.00;;;;;;5026414;28;19924;-66
2022/10/31 03:58:37;;;;;;;9.77;3.35;;;10.60;98.00;;;;;;5017747;28;20032;-67
2022/10/31 04:01:06;;;;;;;8.50;3.13;;;10.40;98.00;;;;;;5050110;28;20021;-67
2022/10/31 04:03:35;;;;;;;10.85;4.20;;;10.20;98.00;;;;;;5014604;28;20390;-66
2022/10/31 04:06:14;;;;;;;10.88;4.50;;;10.00;98.00;;;;;;5019059;28;20053;-66
2022/10/31 04:08:49;;;;;;;9.20;3.03;;;9.90;98.00;;;;;;5015996;28;20096;-67
2022/10/31 04:11:21;;;;;;;9.68;3.05;;;9.90;98.00;;;;;;5051162;28;20033;-66
2022/10/31 04:13:48;;;;;;;9.13;3.20;;;9.80;97.90;;;;;;5019368;28;20113;-67
2022/10/31 04:16:16;;;;;;;7.80;3.15;;;9.80;97.70;;;;;;5018116;28;20022;-67
2022/10/31 04:18:43;;;;;;;9.70;3.97;;;9.90;97.90;;;;;;5017850;28;20101;-66
2022/10/31 04:21:08;;;;;;;8.90;3.15;;;9.90;97.80;;;;;;5018514;28;20046;-67
2022/10/31 04:23:36;;;;;;;14.57;3.60;;;9.90;98.00;;;;;;5017000;28;20070;-66
2022/10/31 04:26:02;;;;;;;7.80;3.78;;;9.70;97.90;;;;;;5018670;28;20022;-67
2022/10/31 04:28:28;;;;;;;6.57;2.97;;;9.60;97.60;;;;;;5016298;28;20103;-66
2022/10/31 04:30:53;;;;;;;8.65;3.10;;;9.50;97.10;;;;;;5015381;28;20160;-67
2022/10/31 04:33:19;;;;;;;10.05;3.22;;;9.50;96.60;;;;;;5016849;28;20064;-66
2022/10/31 04:35:45;;;;;;;11.23;3.42;;;9.40;96.70;;;;;;5016419;28;20104;-67
2022/10/31 04:38:14;;;;;;;9.60;3.10;;;9.30;96.40;;;;;;5015384;28;20046;-67
2022/10/31 04:40:39;;;;;;;7.22;3.08;;;9.20;96.10;;;;;;5030781;28;20438;-67
2022/10/31 04:43:05;;;;;;;8.82;3.53;;;9.20;95.30;;;;;;5033477;28;20041;-66
2022/10/31 04:45:31;;;;;;;10.30;3.83;;;9.30;95.30;;;;;;5017857;28;20022;-67
2022/10/31 04:47:56;;;;;;;11.75;3.72;;;9.30;96.10;;;;;;5019210;28;20022;-67
2022/10/31 04:50:22;;;;;;;7.32;3.10;;;9.20;96.10;;;;;;5017234;28;20056;-66
2022/10/31 04:52:48;;;;;;;9.27;3.60;;;9.10;96.10;;;;;;5015697;28;20318;-67
2022/10/31 04:55:14;;;;;;;8.75;3.20;;;9.10;95.80;;;;;;5025601;28;20030;-68
2022/10/31 04:57:41;;;;;;;7.35;3.00;;;9.10;95.90;;;;;;5014450;28;20069;-67
2022/10/31 05:00:08;;;;;;;11.80;3.58;;;9.20;96.20;;;;;;5016136;28;20036;-66
2022/10/31 05:02:34;;;;;;;9.60;3.47;;;9.40;96.90;;;;;;5014355;28;20026;-66
2022/10/31 05:04:59;;;;;;;14.95;4.22;;;9.50;97.30;;;;;;5014042;28;20036;-67
2022/10/31 05:07:25;;;;;;;11.27;3.22;;;9.60;97.80;;;;;;5013285;28;20058;-67
2022/10/31 05:09:51;;;;;;;9.82;3.13;;;9.70;98.00;;;;;;5013662;28;20042;-67
2022/10/31 05:12:16;;;;;;;8.57;3.45;;;9.60;98.00;;;;;;5014879;28;20044;-66
2022/10/31 05:14:42;;;;;;;9.05;3.40;;;9.50;97.80;;;;;;5020312;28;20040;-67
2022/10/31 05:17:07;;;;;;;10.15;3.47;;;9.50;97.80;;;;;;5010057;28;20021;-66
2022/10/31 05:19:33;;;;;;;12.82;3.88;;;9.50;97.10;;;;;;5013584;28;20052;-67
2022/10/31 05:22:01;;;;;;;10.88;3.80;;;9.50;97.10;;;;;;5009487;28;20053;-65
2022/10/31 05:24:27;;;;;;;9.35;3.80;;;9.50;96.80;;;;;;5009048;28;20354;-67
2022/10/31 05:26:53;;;;;;;8.98;3.28;;;9.50;97.10;;;;;;5014704;28;20021;-67
2022/10/31 05:29:18;;;;;;;10.73;3.50;;;9.40;97.50;;;;;;5013981;28;20311;-67
2022/10/31 05:31:44;;;;;;;13.75;3.53;;;9.20;97.00;;;;;;5012900;28;20422;-67
2022/10/31 05:34:09;;;;;;;8.88;3.05;;;9.10;96.60;;;;;;5013028;28;20040;-66
2022/10/31 05:36:35;;;;;;;9.70;3.10;;;9.10;96.50;;;;;;5011666;28;20048;-66
2022/10/31 05:39:01;;;;;;;7.80;3.28;;;9.10;96.20;;;;;;5012001;28;20058;-65
2022/10/31 05:41:29;;;;;;;9.43;3.33;;;9.10;96.70;;;;;;5011789;28;20037;-66
2022/10/31 05:43:55;;;;;;;9.07;3.85;;;9.10;96.80;;;;;;5014779;28;20033;-67
2022/10/31 05:46:20;;;;;;;7.57;3.53;;;9.20;97.20;;;;;;5016774;28;20041;-66
2022/10/31 05:48:49;;;;;;;12.35;3.53;;;9.20;97.20;;;;;;5010194;28;20046;-67
2022/10/31 05:51:15;;;;;;;10.75;3.28;;;9.10;97.40;;;;;;5003763;28;20022;-66
2022/10/31 05:53:40;;;;;;;10.90;3.03;;;9.20;97.90;;;;;;5011935;28;20033;-67
2022/10/31 05:56:06;;;;;;;10.35;3.15;;;9.20;98.00;;;;;;5019280;28;20029;-66
2022/10/31 05:58:32;;;;;;;10.50;2.97;;;9.20;98.00;;;;;;5014751;28;20037;-66
2022/10/31 06:00:57;;;;;;;9.40;3.33;;;9.10;97.90;;;;;;5015420;28;20324;-66
2022/10/31 06:03:23;;;;;;;7.05;2.92;;;9.00;97.50;;;;;;5012405;28;20336;-67
2022/10/31 06:05:49;;;;;;;10.63;3.42;;;9.00;97.40;;;;;;5016063;28;20048;-66
2022/10/31 06:08:14;;;;;;;11.52;4.03;;;8.90;97.00;;;;;;5010011;28;20105;-66
2022/10/31 06:10:40;;;;;;;8.18;3.10;;;8.80;96.80;;;;;;5005761;28;20058;-66
2022/10/31 06:13:06;;;;;;;10.55;3.97;;;9.00;96.90;;;;;;5004403;28;20030;-66
2022/10/31 06:15:32;;;;;;;8.15;3.60;;;9.10;97.30;;;;;;5021691;28;20065;-66
2022/10/31 06:18:03;;;;;;;9.75;3.17;;;9.20;97.30;;;;;;5015643;28;20026;-66
2022/10/31 06:20:33;;;;;;;9.02;2.90;;;9.30;97.90;;;;;;5010305;28;20037;-67
2022/10/31 06:22:58;;;;;;;10.32;2.90;;;9.40;98.00;;;;;;5011583;28;20434;-66
2022/10/31 06:25:25;;;;;;;9.05;3.25;;;9.60;98.00;;;;;;5007123;28;20027;-67
2022/10/31 06:27:51;;;;;;;7.97;3.28;;;9.60;98.00;;;;;;5002619;28;20022;-66
2022/10/31 06:30:17;;;;;;;9.80;3.30;;;9.60;98.00;;;;;;4998829;28;20436;-66
2022/10/31 06:32:43;;;;;;;8.45;3.78;;;9.40;98.00;;;;;;5000704;28;20038;-66
2022/10/31 06:35:09;;;;;;;9.20;3.80;;;9.30;98.00;;;;;;5010735;28;20042;-65
2022/10/31 06:37:34;;;;;;;11.52;3.60;;;9.20;97.80;;;;;;5010724;28;20061;-65
2022/10/31 06:40:00;;;;;;;7.10;2.92;;;9.30;98.00;;;;;;5017509;28;20081;-64
2022/10/31 06:42:26;;;;;;;8.00;3.10;;;9.40;98.00;;;;;;5008725;28;20033;-65
2022/10/31 06:44:51;;;;;;;7.10;2.85;;;9.40;98.00;;;;;;5013808;28;20030;-64
2022/10/31 06:47:20;;;;;;;13.35;3.50;;;9.50;98.00;;;;;;5007922;28;20030;-66
2022/10/31 06:49:46;;;;;;;11.63;3.33;;;9.60;98.00;;;;;;5014631;28;20044;-66
2022/10/31 06:52:15;;;;;;;9.02;2.85;;;9.80;98.00;;;;;;5015120;28;20101;-67
2022/10/31 06:54:40;;;;;;;12.13;3.40;;;9.90;98.00;;;;;;5012206;28;20037;-66
2022/10/31 06:57:06;;;;;;;8.27;3.38;;;10.10;98.00;;;;;;5014734;28;20037;-66
2022/10/31 06:59:31;;;;;;;9.85;3.05;;;10.10;98.00;;;;;;5007567;28;20102;-66
2022/10/31 07:01:58;;;;;;;8.70;3.30;;;10.10;98.00;;;;;;4996695;28;20054;-66
2022/10/31 07:04:26;;;;;;;11.57;3.53;;;10.20;98.00;;;;;;5011759;28;20292;-66
2022/10/31 07:06:52;;;;;;;8.50;2.75;;;10.30;98.00;;;;;;5013384;28;20029;-66
2022/10/31 07:09:21;;;;;;;9.27;3.70;;;10.40;98.00;;;;;;5011231;28;20108;-66
2022/10/31 07:11:47;;;;;;;11.55;3.47;;;10.60;98.00;;;;;;5016111;28;20025;-66
2022/10/31 07:14:12;;;;;;;7.70;3.10;;;10.70;98.00;;;;;;5053444;28;20029;-65
2022/10/31 07:16:38;;;;;;;10.60;3.40;;;10.80;98.00;;;;;;5011763;28;20026;-66
2022/10/31 07:19:04;;;;;;;10.55;3.17;;;11.00;98.00;;;;;;5008233;28;20021;-66
2022/10/31 07:21:29;;;;;;;9.63;3.53;;;11.30;98.00;;;;;;5008721;28;20095;-67
2022/10/31 07:26:25;;;;;;;8.07;2.72;;;11.60;98.00;;;;;;5008021;28;20086;-68
2022/10/31 07:28:51;;;;;;;11.43;3.22;;;11.80;98.00;;;;;;5014255;28;20030;-68
2022/10/31 07:31:17;;;;;;;7.97;2.75;;;12.00;98.00;;;;;;5011152;28;20036;-69
2022/10/31 07:33:45;;;;;;;13.02;3.88;;;12.20;98.00;;;;;;5015302;28;20132;-68
2022/10/31 07:36:11;;;;;;;10.02;3.00;;;12.40;98.00;;;;;;5010900;28;20588;-68
2022/10/31 07:38:36;;;;;;;7.20;2.88;;;12.70;97.90;;;;;;5013138;28;20109;-68
2022/10/31 07:41:02;;;;;;;10.35;2.70;;;12.80;97.60;;;;;;5014900;28;20390;-68
2022/10/31 07:43:28;;;;;;;8.82;3.08;;;12.90;97.40;;;;;;5012001;28;20463;-66
2022/10/31 07:45:53;;;;;;;9.45;2.88;;;13.00;97.60;;;;;;5014448;28;20133;-68
2022/10/31 07:48:20;;;;;;;9.88;2.90;;;13.20;97.00;;;;;;5011114;28;20025;-67
2022/10/31 07:50:46;;;;;;;12.48;3.67;;;13.30;97.00;;;;;;5011905;28;20482;-66
2022/10/31 07:53:16;;;;;;;8.95;2.97;;;13.70;95.20;;;;;;5014096;28;20120;-67
2022/10/31 07:55:42;;;;;;;11.30;3.13;;;14.00;94.10;;;;;;5010842;28;20034;-67
2022/10/31 07:58:14;;;;;;;11.52;3.20;;;14.40;92.70;;;;;;5010062;28;20228;-66
2022/10/31 08:00:41;;;;;;;9.18;3.03;;;14.70;92.30;;;;;;5011313;28;20119;-67
2022/10/31 08:03:08;;;;;;;9.57;3.47;;;14.90;92.10;;;;;;5012476;28;20018;-66
2022/10/31 08:05:34;;;;;;;12.02;4.00;;;14.90;88.90;;;;;;5013623;28;20029;-68
2022/10/31 08:08:00;;;;;;;10.00;4.05;;;14.70;89.80;;;;;;5011145;28;20033;-67
2022/10/31 08:10:27;;;;;;;9.05;4.05;;;14.40;90.00;;;;;;5010469;28;20029;-67
2022/10/31 08:13:14;;;;;;;10.48;4.18;;;14.20;90.70;;;;;;5010664;28;20064;-67
2022/10/31 08:15:41;;;;;;;14.98;4.78;;;14.20;90.00;;;;;;5008808;28;20038;-67
2022/10/31 08:18:14;;;;;;;14.02;4.45;;;14.10;90.80;;;;;;5012245;28;20034;-66
2022/10/31 08:20:40;;;;;;;8.95;4.18;;;14.20;90.40;;;;;;5009084;28;20318;-67
2022/10/31 08:23:06;;;;;;;11.90;3.65;;;14.60;89.50;;;;;;5008378;28;20041;-67
2022/10/31 08:25:33;;;;;;;10.65;3.00;;;14.90;87.70;;;;;;5012402;28;20323;-67
2022/10/31 08:27:59;;;;;;;10.23;3.10;;;15.20;87.20;;;;;;5013108;28;20362;-67
2022/10/31 08:30:28;;;;;;;12.45;3.50;;;15.40;86.30;;;;;;5010664;28;20065;-67
2022/10/31 08:33:01;;;;;;;10.65;3.20;;;15.60;86.70;;;;;;5016937;28;20359;-67
2022/10/31 08:35:27;;;;;;;8.07;3.17;;;16.00;85.40;;;;;;5011813;28;20118;-66
2022/10/31 08:37:55;;;;;;;11.63;3.13;;;16.50;83.80;;;;;;5014260;28;20109;-66
2022/10/31 08:40:21;;;;;;;7.90;3.13;;;16.70;82.70;;;;;;5017202;28;20030;-66
2022/10/31 08:42:46;;;;;;;7.53;3.25;;;17.10;82.40;;;;;;5010618;28;20030;-65
2022/10/31 08:45:12;;;;;;;9.00;3.50;;;17.10;81.30;;;;;;5016562;28;20069;-66
2022/10/31 08:47:38;;;;;;;8.77;3.50;;;17.10;81.30;;;;;;5016026;28;20318;-65
2022/10/31 08:50:05;;;;;;;15.13;3.90;;;17.00;81.30;;;;;;5014165;28;20026;-66
2022/10/31 08:52:34;;;;;;;10.35;3.78;;;16.60;82.30;;;;;;5002660;28;20087;-66
2022/10/31 08:55:00;;;;;;;13.10;4.15;;;16.40;83.10;;;;;;5016511;28;20040;-67
2022/10/31 08:57:25;;;;;;;11.10;3.22;;;16.30;83.30;;;;;;5015350;28;20031;-67
2022/10/31 08:59:51;;;;;;;9.88;3.42;;;15.90;83.30;;;;;;5017974;28;20077;-66
2022/10/31 09:02:18;;;;;;;14.63;3.33;;;15.80;83.80;;;;;;5015765;28;20037;-66
2022/10/31 09:04:46;;;;;;;10.93;3.00;;;15.80;83.70;;;;;;5014959;28;20034;-66
2022/10/31 09:07:11;;;;;;;12.18;3.88;;;16.10;83.40;;;;;;5015788;28;20029;-67
2022/10/31 09:09:37;;;;;;;10.98;3.00;;;16.50;82.60;;;;;;5016466;28;20052;-65
2022/10/31 09:12:03;;;;;;;9.90;3.70;;;17.00;80.80;;;;;;5018294;28;20063;-66
2022/10/31 09:14:29;;;;;;;9.13;3.50;;;17.20;80.80;;;;;;5017550;28;20038;-66
2022/10/31 09:16:54;;;;;;;10.13;2.90;;;17.50;79.80;;;;;;5016701;28;20034;-66
2022/10/31 09:19:20;;;;;;;10.70;3.60;;;17.80;78.70;;;;;;5017511;28;20033;-67
2022/10/31 09:21:51;;;;;;;10.95;3.40;;;18.00;78.40;;;;;;5017131;28;20025;-66
2022/10/31 09:24:17;;;;;;;11.40;3.00;;;18.20;77.60;;;;;;5016233;28;20104;-67
2022/10/31 09:26:42;;;;;;;12.18;3.10;;;18.20;77.00;;;;;;5017171;28;20058;-67
2022/10/31 09:29:09;;;;;;;12.05;3.15;;;18.50;76.70;;;;;;5015745;28;20408;-66
2022/10/31 09:31:38;;;;;;;12.20;3.13;;;18.90;75.60;;;;;;5016653;28;20029;-67
2022/10/31 09:34:04;;;;;;;8.63;3.55;;;18.90;76.20;;;;;;5017266;28;20033;-67
2022/10/31 09:36:29;;;;;;;11.02;3.88;;;19.20;74.80;;;;;;5017133;28;20050;-67
2022/10/31 09:38:55;;;;;;;7.60;2.90;;;19.80;73.90;;;;;;5016798;28;20112;-67
2022/10/31 09:41:50;;;;;;;8.93;3.13;;;20.10;72.60;;;;;;5016936;28;20419;-68
2022/10/31 09:44:22;;;;;;;13.07;2.95;;;19.70;73.00;;;;;;5005950;28;20057;-67
2022/10/31 09:47:13;;;;;;;10.13;3.38;;;19.50;75.20;;;;;;5014976;28;20019;-67
2022/10/31 09:50:06;;;;;;;9.52;3.10;;;19.30;75.70;;;;;;5016027;28;20038;-67
2022/10/31 09:52:36;;;;;;;9.68;3.38;;;20.00;74.60;;;;;;4997122;28;20360;-67
2022/10/31 09:55:46;;;;;;;13.57;3.72;;;20.60;72.90;;;;;;5011924;28;20022;-67
2022/10/31 09:58:34;;;;;;;8.20;3.10;;;20.70;72.90;;;;;;5016575;28;20042;-67
2022/10/31 10:01:02;;;;;;;11.95;3.38;;;21.40;71.00;;;;;;5002673;28;20423;-66
2022/10/31 10:03:32;;;;;;;12.13;3.45;;;21.10;72.00;;;;;;5012881;28;20076;-65
2022/10/31 10:06:09;;;;;;;9.32;3.00;;;21.10;70.20;;;;;;5009689;28;20018;-64
2022/10/31 10:08:35;;;;;;;10.43;3.60;;;21.30;69.80;;;;;;5016713;28;20068;-65
2022/10/31 10:11:41;;;;;;;10.07;3.15;;;21.30;69.20;;;;;;5016247;28;20084;-65
2022/10/31 10:14:18;;;;;;;12.57;3.47;;;20.80;69.70;;;;;;5014473;28;20054;-65
2022/10/31 10:17:08;;;;;;;8.40;2.75;;;20.20;71.30;;;;;;5017367;28;20032;-65
2022/10/31 10:20:21;;;;;;;8.90;3.38;;;20.00;72.60;;;;;;5016157;28;20073;-65
2022/10/31 10:23:01;;;;;;;10.98;3.28;;;20.00;72.80;;;;;;4991590;28;20113;-65
2022/10/31 10:25:40;;;;;;;10.10;3.00;;;19.80;73.70;;;;;;4994756;28;20398;-66
2022/10/31 10:28:28;;;;;;;11.63;3.10;;;19.60;73.70;;;;;;5006874;28;20465;-67
2022/10/31 10:31:36;;;;;;;8.88;2.95;;;19.70;74.10;;;;;;5015158;28;20045;-66
2022/10/31 10:34:02;;;;;;;11.95;3.13;;;20.00;72.80;;;;;;4999553;28;20049;-67
2022/10/31 10:36:37;;;;;;;10.48;2.60;;;20.30;72.00;;;;;;5012677;28;20366;-67
2022/10/31 10:39:11;;;;;;;14.63;3.33;;;20.50;72.50;;;;;;5014512;28;20022;-66
2022/10/31 10:41:40;;;;;;;13.75;3.67;;;20.50;72.90;;;;;;5011825;28;20026;-65
2022/10/31 10:44:10;;;;;;;10.10;3.42;;;20.60;73.10;;;;;;5009456;28;20026;-64
2022/10/31 10:49:51;;;;;;;9.48;2.70;;;22.10;71.60;;;;;;5016422;28;20047;-66
2022/10/31 10:52:27;;;;;;;8.07;3.28;;;22.80;68.90;;;;;;5013484;28;20414;-65
2022/10/31 10:55:20;;;;;;;8.43;2.85;;;23.20;69.20;;;;;;5014907;28;20042;-65
2022/10/31 10:58:03;;;;;;;8.60;3.08;;;23.10;68.60;;;;;;5015508;28;20121;-66
2022/10/31 11:00:31;;;;;;;11.07;3.33;;;22.90;69.30;;;;;;5016839;28;20109;-66
2022/10/31 11:02:57;;;;;;;14.13;3.22;;;22.60;69.20;;;;;;5016216;28;20076;-66
2022/10/31 11:05:50;;;;;;;16.10;3.60;;;22.40;69.70;;;;;;5020572;28;20025;-66
2022/10/31 11:08:32;;;;;;;8.40;3.17;;;22.10;70.30;;;;;;5016352;28;20104;-68
2022/10/31 11:11:09;;;;;;;10.82;3.47;;;21.80;71.60;;;;;;5016276;28;20496;-67
2022/10/31 11:13:36;;;;;;;9.43;3.58;;;21.80;72.50;;;;;;5008625;28;20117;-67
2022/10/31 11:16:07;;;;;;;10.13;2.80;;;22.00;72.30;;;;;;5003966;28;20363;-66
2022/10/31 11:18:41;;;;;;;13.02;3.38;;;22.20;72.80;;;;;;5007641;28;20032;-65
2022/10/31 11:21:21;;;;;;;10.70;2.85;;;22.30;71.10;;;;;;5011834;28;20038;-65
2022/10/31 11:23:47;;;;;;;13.02;3.05;;;22.00;72.30;;;;;;5012558;28;20034;-65
2022/10/31 11:26:20;;;;;;;8.38;3.03;;;21.60;73.00;;;;;;5013757;28;20052;-65
2022/10/31 11:28:59;;;;;;;10.68;2.83;;;21.40;74.20;;;;;;5013064;28;20053;-65
2022/10/31 11:31:27;;;;;;;10.77;3.70;;;21.50;74.10;;;;;;5015360;28;20033;-65
2022/10/31 11:34:05;;;;;;;7.65;2.85;;;21.40;74.80;;;;;;5011104;28;20033;-65
2022/10/31 11:36:34;;;;;;;11.50;4.38;;;21.60;74.20;;;;;;5013157;28;20101;-65
2022/10/31 11:39:02;;;;;;;10.15;2.90;;;21.60;74.90;;;;;;5012294;28;20022;-66
2022/10/31 11:41:38;;;;;;;11.40;3.42;;;21.90;74.00;;;;;;5023943;28;20041;-67
2022/10/31 11:44:14;;;;;;;9.65;3.80;;;21.90;73.80;;;;;;5013948;28;20025;-67
2022/10/31 11:46:42;;;;;;;11.57;3.10;;;22.40;73.30;;;;;;5013832;28;20026;-67
2022/10/31 11:49:33;;;;;;;11.52;3.70;;;22.50;72.50;;;;;;5015731;28;20053;-67
2022/10/31 11:52:04;;;;;;;13.73;3.38;;;22.00;73.60;;;;;;5014315;28;20069;-67
2022/10/31 11:54:38;;;;;;;15.68;3.55;;;21.50;74.70;;;;;;5015891;28;20422;-67
2022/10/31 11:57:04;;;;;;;10.38;3.70;;;20.90;76.80;;;;;;5013584;28;20026;-67
2022/10/31 11:59:31;;;;;;;11.68;3.15;;;20.40;78.00;;;;;;5013555;28;20064;-66
2022/10/31 12:02:00;;;;;;;12.27;3.40;;;20.00;79.50;;;;;;5014858;28;20036;-67
2022/10/31 12:04:41;;;;;;;9.60;3.00;;;19.80;80.60;;;;;;5013864;28;20319;-67
2022/10/31 12:07:07;;;;;;;9.85;3.58;;;19.60;80.70;;;;;;5015114;28;20030;-66
2022/10/31 12:09:36;;;;;;;12.25;4.32;;;19.30;81.40;;;;;;5003879;28;20026;-67
2022/10/31 12:12:11;;;;;;;12.98;3.50;;;19.30;81.90;;;;;;5018981;28;20025;-67
2022/10/31 12:15:04;;;;;;;13.73;4.00;;;19.30;82.40;;;;;;5020133;28;20022;-67
2022/10/31 12:17:51;;;;;;;11.88;3.83;;;19.20;82.00;;;;;;5018349;28;20026;-67
2022/10/31 12:21:03;;;;;;;10.35;3.63;;;19.00;83.20;;;;;;5019383;28;20029;-67
2022/10/31 12:24:09;;;;;;;11.27;5.70;;;18.90;83.40;;;;;;5015192;28;20037;-67
2022/10/31 12:26:42;;;;;;;15.95;7.85;;;18.80;83.50;;;;;;5017511;28;20076;-66
2022/10/31 12:29:51;;;;;;;12.73;5.67;;;18.80;83.90;;;;;;5022546;28;20108;-67
2022/10/31 12:32:34;;;;;;;14.93;5.80;;;18.60;84.10;;;;;;5026875;28;20284;-66
2022/10/31 12:35:06;;;;;;;17.40;5.80;;;18.40;85.30;;;;;;5019700;28;20028;-67
2022/10/31 12:37:51;;;;;;;12.32;3.90;;;18.40;85.50;;;;;;5017251;28;20032;-66
2022/10/31 12:40:45;;;;;;;14.50;4.68;;;18.40;85.70;;;;;;5017455;28;20377;-66
2022/10/31 12:43:22;;;;;;;11.50;3.92;;;18.40;85.50;;;;;;5018303;28;20053;-66
2022/10/31 12:45:54;;;;;;;11.15;4.05;;;18.30;85.20;;;;;;5022031;28;20092;-66
2022/10/31 12:48:41;;;;;;;13.43;4.65;;;18.30;86.30;;;;;;5019008;28;20026;-67
2022/10/31 12:51:12;;;;;;;12.07;4.20;;;18.30;86.30;;;;;;5020663;28;20022;-66
2022/10/31 12:53:50;;;;;;;14.85;4.15;;;18.50;85.40;;;;;;5021761;28;20033;-67
2022/10/31 12:56:45;;;;;;;12.10;4.10;;;18.70;84.70;;;;;;5017986;28;20045;-67
2022/10/31 12:59:34;;;;;;;13.05;4.40;;;18.60;85.20;;;;;;5020974;28;20037;-66
2022/10/31 13:02:14;;;;;;;10.40;4.10;;;18.70;85.30;;;;;;5014450;28;20037;-65
2022/10/31 13:04:50;;;;;;;9.95;3.58;;;18.90;85.10;;;;;;5018607;28;20076;-65
2022/10/31 13:07:46;;;;;;;13.43;4.10;;;19.00;82.80;;;;;;5017837;28;20109;-65
2022/10/31 13:10:52;;;;;;;12.93;4.10;;;19.10;82.00;;;;;;4998075;28;20030;-65
2022/10/31 13:13:21;;;;;;;11.43;4.28;;;19.20;81.70;;;;;;5007434;28;20377;-67
2022/10/31 13:15:57;;;;;;;13.55;4.85;;;19.40;82.10;;;;;;5017085;28;20125;-67